Time;durP1;ratioP1;P1;durP2;ratioP2;P2;SDS_P1;SDS_P2;PMS_P1;PMS_P2;Temp;Humidity;BMP_temperature;BMP_pressure;BME280_temperature;BME280_humidity;BME280_pressure;Samples;Min_cycle;Max_cycle;Signal;HPM_P1;HPM_P2
2023/05/20 00:01:00;;;;;;;2.10;1.15;;;;;;;20.13;46.37;102667.84;5026387;28;20061;-34
2023/05/20 00:03:28;;;;;;;2.78;1.20;;;;;;;20.12;45.72;102667.00;5020921;28;20128;-33
2023/05/20 00:05:55;;;;;;;2.13;0.90;;;;;;;20.12;45.49;102667.00;5026517;28;20077;-34
2023/05/20 00:08:21;;;;;;;1.33;0.90;;;;;;;20.11;45.69;102662.59;5025609;28;20516;-34
2023/05/20 00:10:48;;;;;;;1.88;1.23;;;;;;;20.10;45.96;102666.28;5025547;28;20119;-33
2023/05/20 00:13:15;;;;;;;1.73;0.93;;;;;;;20.10;46.10;102674.34;5026772;28;20124;-33
2023/05/20 00:15:41;;;;;;;1.80;0.82;;;;;;;20.10;45.57;102682.44;5023943;28;20097;-33
2023/05/20 00:18:08;;;;;;;1.15;0.95;;;;;;;20.09;45.80;102671.75;5019802;28;20046;-33
2023/05/20 00:20:35;;;;;;;2.33;1.25;;;;;;;20.09;45.70;102669.06;5022851;28;20499;-34
2023/05/20 00:23:01;;;;;;;2.00;1.15;;;;;;;20.08;46.11;102668.22;5026208;28;20100;-33
2023/05/20 00:25:30;;;;;;;1.50;0.88;;;;;;;20.07;45.65;102669.22;5025886;28;20054;-34
2023/05/20 00:27:57;;;;;;;1.55;1.10;;;;;;;20.08;45.48;102672.75;5023074;28;20305;-33
2023/05/20 00:30:23;;;;;;;1.45;0.90;;;;;;;20.07;46.19;102671.03;5020831;28;20073;-33
2023/05/20 00:32:50;;;;;;;1.45;1.05;;;;;;;20.06;45.90;102664.81;5019066;28;20410;-32
2023/05/20 00:35:17;;;;;;;3.28;1.00;;;;;;;20.06;45.39;102674.69;5022268;28;20050;-33
2023/05/20 00:37:43;;;;;;;1.95;0.90;;;;;;;20.06;45.61;102669.31;5029629;28;20072;-33
2023/05/20 00:40:10;;;;;;;1.52;0.90;;;;;;;20.05;46.23;102671.16;5023417;28;20057;-33
2023/05/20 00:42:40;;;;;;;2.80;1.10;;;;;;;20.05;46.16;102668.47;5023257;28;20045;-33
2023/05/20 00:45:07;;;;;;;1.52;1.20;;;;;;;20.05;45.49;102670.28;5024646;28;20481;-34
2023/05/20 00:47:37;;;;;;;1.52;0.82;;;;;;;20.04;45.84;102669.44;5026980;28;20050;-34
2023/05/20 00:50:05;;;;;;;3.28;1.20;;;;;;;20.04;46.28;102665.91;5021330;28;20045;-33
2023/05/20 00:52:32;;;;;;;2.13;1.00;;;;;;;20.03;46.30;102662.34;5027133;28;20265;-33
2023/05/20 00:54:59;;;;;;;1.17;0.95;;;;;;;20.04;45.98;102666.75;5025617;28;20057;-34
2023/05/20 00:57:26;;;;;;;1.77;0.90;;;;;;;20.01;46.50;102648.16;5020679;28;20400;-35
2023/05/20 00:59:53;;;;;;;1.80;1.13;;;;;;;20.01;46.19;102645.47;5029078;28;20429;-33
2023/05/20 01:02:20;;;;;;;4.00;0.93;;;;;;;20.01;45.80;102650.84;5027086;28;20099;-33
2023/05/20 01:04:47;;;;;;;1.00;0.80;;;;;;;20.00;46.02;102642.91;5027575;28;20042;-33
2023/05/20 01:07:18;;;;;;;2.97;1.13;;;;;;;19.98;46.41;102640.34;5023556;28;20045;-33
2023/05/20 01:09:54;;;;;;;0.90;0.80;;;;;;;19.98;46.39;102643.03;5043972;28;20708;-33
2023/05/20 01:12:30;;;;;;;3.95;0.90;;;;;;;19.96;45.94;102632.38;5038540;28;20045;-33
2023/05/20 01:15:00;;;;;;;2.00;0.90;;;;;;;19.97;46.30;102641.28;5038056;28;20145;-34
2023/05/20 01:17:31;;;;;;;1.75;1.17;;;;;;;19.94;45.74;102634.34;5035095;28;20076;-33
2023/05/20 01:19:59;;;;;;;1.67;1.10;;;;;;;19.96;46.02;102639.59;5034928;28;20054;-33
2023/05/20 01:22:27;;;;;;;2.50;1.40;;;;;;;19.93;45.91;102634.44;5038339;28;20384;-33
2023/05/20 01:24:54;;;;;;;1.75;1.02;;;;;;;19.93;45.98;102637.13;5042168;28;20111;-33
2023/05/20 01:27:21;;;;;;;1.80;0.85;;;;;;;19.92;45.88;102641.66;5036998;28;20087;-33
2023/05/20 01:29:49;;;;;;;1.10;0.90;;;;;;;19.90;45.95;102627.50;5039217;28;20099;-33
2023/05/20 01:32:22;;;;;;;1.23;0.95;;;;;;;19.90;45.87;102623.91;5036042;28;20085;-33
2023/05/20 01:34:51;;;;;;;1.45;0.98;;;;;;;19.89;45.92;102624.91;5038125;28;20180;-34
2023/05/20 01:37:21;;;;;;;1.35;0.90;;;;;;;19.89;45.87;102623.06;5034577;28;20923;-33
2023/05/20 01:39:49;;;;;;;2.85;1.15;;;;;;;19.88;46.07;102615.97;5036215;28;20162;-33
2023/05/20 01:42:16;;;;;;;1.77;1.10;;;;;;;19.87;45.67;102610.72;5037347;28;20116;-34
2023/05/20 01:44:43;;;;;;;1.40;0.98;;;;;;;19.87;45.81;102616.97;5034951;28;20107;-33
2023/05/20 01:47:10;;;;;;;2.03;1.10;;;;;;;19.86;45.99;102614.38;5035466;28;20053;-33
2023/05/20 01:49:36;;;;;;;1.80;1.15;;;;;;;19.86;46.52;102612.56;5040377;28;20037;-33
2023/05/20 01:52:04;;;;;;;1.25;0.85;;;;;;;19.84;46.05;102606.44;5036399;28;20049;-34
2023/05/20 01:54:30;;;;;;;2.72;1.23;;;;;;;19.85;46.07;102612.69;5038354;28;20107;-33
2023/05/20 01:56:57;;;;;;;0.85;0.80;;;;;;;19.83;46.08;102610.13;5038062;28;20048;-33
2023/05/20 01:59:24;;;;;;;1.67;1.00;;;;;;;19.83;46.09;102609.28;5035376;28;20050;-33
2023/05/20 02:01:50;;;;;;;1.05;0.73;;;;;;;19.82;45.96;102610.22;5034091;28;20045;-33
2023/05/20 02:04:17;;;;;;;1.65;0.90;;;;;;;19.81;46.05;102614.75;5038822;28;20049;-33
2023/05/20 02:06:44;;;;;;;2.28;1.00;;;;;;;19.80;45.92;102612.19;5031097;28;20708;-33
2023/05/20 02:09:11;;;;;;;1.58;1.02;;;;;;;19.79;46.37;102605.97;5035025;28;20082;-33
2023/05/20 02:11:38;;;;;;;1.13;1.00;;;;;;;19.78;46.72;102606.94;5038038;28;20204;-33
2023/05/20 02:14:05;;;;;;;1.95;1.00;;;;;;;19.78;46.16;102609.63;5038674;28;20103;-32
2023/05/20 02:16:31;;;;;;;1.60;0.98;;;;;;;19.77;45.95;102610.59;5034193;28;20517;-33
2023/05/20 02:18:58;;;;;;;1.70;0.88;;;;;;;19.77;46.61;102610.59;5039172;28;20228;-33
2023/05/20 02:21:25;;;;;;;2.42;1.13;;;;;;;19.76;46.55;102608.03;5022884;28;20123;-33
2023/05/20 02:23:51;;;;;;;2.08;1.00;;;;;;;19.74;46.40;102610.88;5024435;28;20101;-35
2023/05/20 02:26:19;;;;;;;2.05;1.08;;;;;;;19.73;46.55;102609.97;5030690;28;20464;-33
2023/05/20 02:28:49;;;;;;;0.90;0.80;;;;;;;19.73;46.54;102609.97;5025297;28;20769;-33
2023/05/20 02:31:16;;;;;;;1.65;0.82;;;;;;;19.72;46.64;102610.97;5025107;28;20077;-33
2023/05/20 02:33:44;;;;;;;1.67;0.90;;;;;;;19.71;46.66;102611.09;5019209;28;20060;-33
2023/05/20 02:36:10;;;;;;;1.50;1.10;;;;;;;19.71;46.28;102611.94;5021389;28;20054;-33
2023/05/20 02:38:37;;;;;;;1.13;0.90;;;;;;;19.70;46.70;102610.25;5023502;28;20077;-33
2023/05/20 02:41:04;;;;;;;1.65;1.05;;;;;;;19.70;46.42;102602.19;5026309;28;20438;-33
2023/05/20 02:43:32;;;;;;;1.23;0.90;;;;;;;19.69;46.61;102602.28;5027507;28;20441;-33
2023/05/20 02:45:59;;;;;;;1.40;0.90;;;;;;;19.69;45.99;102597.75;5023468;28;20108;-33
2023/05/20 02:48:26;;;;;;;0.98;0.90;;;;;;;19.69;46.28;102599.59;5019339;28;20333;-33
2023/05/20 02:50:52;;;;;;;1.20;0.90;;;;;;;19.67;46.16;102599.72;5023275;28;20104;-33
2023/05/20 02:53:19;;;;;;;1.25;0.88;;;;;;;19.67;46.17;102591.66;5022117;28;20460;-33
2023/05/20 02:55:47;;;;;;;2.05;1.20;;;;;;;19.65;46.69;102593.59;5024175;28;20128;-33
2023/05/20 02:58:13;;;;;;;1.20;1.00;;;;;;;19.65;46.16;102598.97;5023991;28;20042;-34
2023/05/20 03:00:40;;;;;;;2.55;1.10;;;;;;;19.65;46.29;102601.66;5021622;28;20416;-33
2023/05/20 03:03:08;;;;;;;1.77;1.15;;;;;;;19.66;46.82;102594.47;5021162;28;20053;-33
2023/05/20 03:05:36;;;;;;;1.30;0.93;;;;;;;19.64;46.43;102593.72;5025448;28;20053;-33
2023/05/20 03:08:11;;;;;;;2.03;1.00;;;;;;;19.63;46.88;102594.72;5021922;28;20095;-33
2023/05/20 03:10:38;;;;;;;1.65;0.90;;;;;;;19.63;46.68;102590.19;5022363;28;20054;-33
2023/05/20 03:13:10;;;;;;;1.40;1.00;;;;;;;19.62;46.86;102595.69;5022065;28;20104;-33
2023/05/20 03:15:38;;;;;;;1.10;0.80;;;;;;;19.61;46.33;102585.84;5020704;28;20049;-33
2023/05/20 03:18:07;;;;;;;3.13;1.23;;;;;;;19.60;46.64;102593.06;5026606;28;20053;-33
2023/05/20 03:20:35;;;;;;;1.30;1.10;;;;;;;19.60;46.39;102592.22;5021669;28;20659;-34
2023/05/20 03:23:03;;;;;;;1.33;0.80;;;;;;;19.59;46.18;102598.59;5025041;28;20077;-33
2023/05/20 03:25:30;;;;;;;0.90;0.73;;;;;;;19.58;46.71;102600.44;5022172;28;20050;-33
2023/05/20 03:28:00;;;;;;;2.15;0.90;;;;;;;19.58;46.49;102597.72;5025671;28;20069;-33
2023/05/20 03:30:27;;;;;;;0.80;0.80;;;;;;;19.58;46.63;102595.03;5022998;28;20045;-33
2023/05/20 03:32:56;;;;;;;1.42;1.08;;;;;;;19.57;46.21;102604.06;5035501;28;20081;-34
2023/05/20 03:35:23;;;;;;;1.60;1.13;;;;;;;19.57;46.70;102600.53;5019428;28;20050;-33
2023/05/20 03:37:51;;;;;;;1.58;0.95;;;;;;;19.57;46.38;102604.06;5019492;28;20101;-33
2023/05/20 03:40:22;;;;;;;1.42;1.05;;;;;;;19.56;46.79;102605.06;5027425;28;20076;-33
2023/05/20 03:42:51;;;;;;;1.52;0.95;;;;;;;19.56;46.98;102604.19;5026272;28;20103;-33
2023/05/20 03:45:18;;;;;;;1.02;0.93;;;;;;;19.55;46.81;102611.41;5027445;28;20101;-33
2023/05/20 03:47:44;;;;;;;1.40;0.90;;;;;;;19.56;46.72;102601.50;5023500;28;20436;-33
2023/05/20 03:50:11;;;;;;;0.95;0.88;;;;;;;19.56;46.74;102599.69;5022243;28;20144;-33
2023/05/20 03:52:39;;;;;;;1.38;0.90;;;;;;;19.55;46.85;102603.34;5018753;28;20045;-33
2023/05/20 03:55:06;;;;;;;1.30;1.08;;;;;;;19.55;46.73;102597.97;5028234;28;20053;-33
2023/05/20 03:57:35;;;;;;;1.95;0.85;;;;;;;19.55;46.82;102595.28;5028222;28;20108;-33
2023/05/20 04:00:07;;;;;;;1.85;1.00;;;;;;;19.55;46.59;102599.81;5037401;28;20060;-33
2023/05/20 04:02:34;;;;;;;1.40;1.02;;;;;;;19.55;46.72;102589.91;5021056;28;20141;-33
2023/05/20 04:05:01;;;;;;;1.73;1.00;;;;;;;19.54;46.49;102593.56;5021188;28;20429;-33
2023/05/20 04:07:28;;;;;;;1.55;0.95;;;;;;;19.54;46.94;102588.19;5020272;28;20049;-33
2023/05/20 04:09:55;;;;;;;1.17;1.00;;;;;;;19.55;46.79;102586.34;5023261;28;20319;-34
2023/05/20 04:12:22;;;;;;;1.50;1.13;;;;;;;19.54;46.86;102590.88;5022663;28;20053;-34
2023/05/20 04:14:48;;;;;;;2.40;1.10;;;;;;;19.54;46.90;102596.25;5021213;28;20434;-33
2023/05/20 04:17:15;;;;;;;1.20;0.75;;;;;;;19.54;46.40;102595.38;5021997;28;20087;-33
2023/05/20 04:19:43;;;;;;;1.42;1.00;;;;;;;19.55;46.70;102595.28;5017671;28;20061;-33
2023/05/20 04:22:10;;;;;;;1.30;0.85;;;;;;;19.55;46.47;102594.44;5020640;28;20049;-33
2023/05/20 04:24:37;;;;;;;1.30;0.90;;;;;;;19.55;46.77;102594.44;5024312;28;20041;-33
2023/05/20 04:27:04;;;;;;;1.10;1.00;;;;;;;19.55;46.34;102589.03;5020815;28;20085;-33
2023/05/20 04:29:33;;;;;;;1.17;1.00;;;;;;;19.55;46.60;102599.81;5021267;28;20405;-33
2023/05/20 04:32:00;;;;;;;1.13;0.77;;;;;;;19.55;46.38;102594.44;5019722;28;20128;-36
2023/05/20 04:34:33;;;;;;;1.90;1.10;;;;;;;19.56;46.75;102596.13;5020269;28;20041;-33
2023/05/20 04:37:00;;;;;;;0.70;0.70;;;;;;;19.56;46.14;102596.13;5019359;28;20108;-33
2023/05/20 04:39:27;;;;;;;1.90;0.90;;;;;;;19.55;46.40;102591.75;5020626;28;20103;-35
2023/05/20 04:41:53;;;;;;;0.80;0.80;;;;;;;19.55;46.85;102600.66;5022260;28;20108;-33
2023/05/20 04:44:21;;;;;;;0.82;0.80;;;;;;;19.56;46.45;102598.81;5023186;28;20056;-33
2023/05/20 04:46:48;;;;;;;1.10;1.00;;;;;;;19.56;46.48;102601.50;5022850;28;20046;-33
2023/05/20 04:49:14;;;;;;;1.50;1.35;;;;;;;19.56;46.35;102610.44;5015772;28;20085;-33
2023/05/20 04:51:43;;;;;;;1.00;0.90;;;;;;;19.56;46.55;102610.44;5018045;28;20081;-33
2023/05/20 04:54:10;;;;;;;1.95;0.85;;;;;;;19.57;46.17;102609.44;5019213;28;20081;-33
2023/05/20 04:56:37;;;;;;;1.27;1.17;;;;;;;19.59;46.66;102612.03;5027267;28;20135;-33
2023/05/20 04:59:03;;;;;;;3.22;0.85;;;;;;;19.58;46.63;102611.19;5018463;28;20091;-33
2023/05/20 05:01:30;;;;;;;2.97;0.90;;;;;;;19.59;46.86;102607.50;5019317;28;20493;-33
2023/05/20 05:03:56;;;;;;;2.22;1.30;;;;;;;19.59;46.74;102602.13;5021298;28;20045;-33
2023/05/20 05:06:23;;;;;;;1.70;1.08;;;;;;;19.59;46.85;102599.44;5020622;28;20107;-33
2023/05/20 05:08:50;;;;;;;2.15;1.27;;;;;;;19.61;46.17;102599.31;5018790;28;20096;-32
2023/05/20 05:11:16;;;;;;;0.80;0.77;;;;;;;19.60;46.65;102593.06;5027068;28;20107;-33
2023/05/20 05:13:43;;;;;;;1.58;0.80;;;;;;;19.61;46.91;102596.63;5024414;28;20072;-33
2023/05/20 05:16:09;;;;;;;1.20;0.85;;;;;;;19.62;46.43;102599.25;5023012;28;20119;-33
2023/05/20 05:18:36;;;;;;;0.80;0.80;;;;;;;19.62;46.80;102599.25;5022747;28;20438;-33
2023/05/20 05:21:04;;;;;;;1.33;1.15;;;;;;;19.63;46.37;102600.94;5023235;28;20110;-33
2023/05/20 05:23:32;;;;;;;1.63;0.80;;;;;;;19.65;46.52;102598.13;5020592;28;20126;-33
2023/05/20 05:25:58;;;;;;;1.27;0.90;;;;;;;19.67;46.74;102598.88;5020146;28;20049;-34
2023/05/20 05:28:25;;;;;;;1.15;0.85;;;;;;;19.67;46.55;102598.88;5020978;28;20133;-33
2023/05/20 05:30:55;;;;;;;4.65;1.15;;;;;;;19.68;46.76;102595.19;5020627;28;20103;-33
2023/05/20 05:33:22;;;;;;;1.95;0.85;;;;;;;19.70;46.70;102594.09;5022177;28;20138;-33
2023/05/20 05:35:49;;;;;;;1.33;0.90;;;;;;;19.72;46.13;102586.75;5019308;28;20739;-33
2023/05/20 05:38:16;;;;;;;0.90;0.70;;;;;;;19.75;46.32;102579.44;5025241;28;20133;-34
2023/05/20 05:40:43;;;;;;;2.25;1.00;;;;;;;19.78;46.76;102581.84;5023838;28;20056;-33
2023/05/20 05:43:09;;;;;;;1.52;0.90;;;;;;;19.80;46.15;102579.91;5020338;28;20081;-33
2023/05/20 05:45:36;;;;;;;0.88;0.80;;;;;;;19.81;46.78;102587.84;5019616;28;20049;-34
2023/05/20 05:48:03;;;;;;;1.42;1.02;;;;;;;19.84;46.50;102578.69;5018777;28;20400;-33
2023/05/20 05:50:29;;;;;;;1.02;0.90;;;;;;;19.86;46.01;102574.00;5019923;28;20050;-33
2023/05/20 05:52:56;;;;;;;1.65;1.08;;;;;;;19.88;46.34;102581.00;5020450;28;20421;-33
2023/05/20 05:55:23;;;;;;;1.65;1.00;;;;;;;19.90;45.94;102583.56;5021331;28;20058;-33
2023/05/20 05:57:50;;;;;;;1.02;0.70;;;;;;;19.91;46.41;102575.38;5023514;28;20061;-33
2023/05/20 06:00:16;;;;;;;0.98;0.80;;;;;;;19.93;45.61;102584.16;5036611;28;20799;-33
2023/05/20 06:02:44;;;;;;;1.08;0.93;;;;;;;19.96;46.25;102583.94;5025566;28;20064;-33
2023/05/20 06:05:10;;;;;;;1.67;0.80;;;;;;;19.98;46.55;102589.22;5022464;28;20053;-33
2023/05/20 06:07:37;;;;;;;1.00;0.82;;;;;;;19.99;45.59;102588.22;5021192;28;20408;-34
2023/05/20 06:10:04;;;;;;;2.13;1.08;;;;;;;20.01;45.62;102583.56;5025716;28;20485;-35
2023/05/20 06:12:31;;;;;;;0.93;0.90;;;;;;;20.03;46.08;102584.28;5023018;28;20081;-33
2023/05/20 06:14:58;;;;;;;1.02;0.93;;;;;;;20.05;45.89;102587.69;5030199;28;20056;-33
2023/05/20 06:17:24;;;;;;;1.38;0.95;;;;;;;20.07;45.66;102587.59;5022087;28;20042;-33
2023/05/20 06:19:51;;;;;;;1.65;0.98;;;;;;;20.09;46.18;102581.09;5025326;28;20084;-34
2023/05/20 06:22:18;;;;;;;1.05;0.85;;;;;;;20.11;46.06;102586.38;5023695;28;20053;-33
2023/05/20 06:24:44;;;;;;;2.58;0.80;;;;;;;20.12;45.93;102586.22;5029368;28;20054;-33
2023/05/20 06:27:11;;;;;;;1.88;1.00;;;;;;;20.14;45.94;102578.03;5027114;28;20049;-33
2023/05/20 06:29:38;;;;;;;0.70;0.70;;;;;;;20.15;45.81;102574.38;5021814;28;20054;-33
2023/05/20 06:32:06;;;;;;;2.10;1.00;;;;;;;20.17;45.86;102575.09;5040437;28;20132;-33
2023/05/20 06:34:32;;;;;;;1.58;0.70;;;;;;;20.18;45.74;102588.44;5023994;28;20056;-34
2023/05/20 06:36:59;;;;;;;1.40;0.93;;;;;;;20.20;45.44;102574.84;5027713;28;20127;-34
2023/05/20 06:39:26;;;;;;;1.98;0.82;;;;;;;20.21;45.22;102579.22;5030437;28;20077;-33
2023/05/20 06:41:52;;;;;;;1.02;0.88;;;;;;;20.22;45.32;102570.16;5027800;28;20156;-33
2023/05/20 06:44:19;;;;;;;1.35;0.80;;;;;;;20.24;45.75;102567.38;5027095;28;20153;-33
2023/05/20 06:46:45;;;;;;;0.85;0.80;;;;;;;20.25;45.05;102574.44;5020043;28;20053;-32
2023/05/20 06:49:12;;;;;;;1.63;0.90;;;;;;;20.25;44.95;102571.75;5022017;28;20041;-33
2023/05/20 06:51:39;;;;;;;2.35;1.10;;;;;;;20.25;45.15;102561.84;5021296;28;20107;-32
2023/05/20 06:54:05;;;;;;;1.40;0.90;;;;;;;20.25;45.27;102566.38;5031206;28;20053;-33
2023/05/20 06:56:32;;;;;;;1.75;0.95;;;;;;;20.27;45.57;102564.44;5025121;28;20188;-33
2023/05/20 06:58:59;;;;;;;1.23;0.80;;;;;;;20.27;45.68;102561.75;5022690;28;20053;-33
2023/05/20 07:01:26;;;;;;;3.60;1.15;;;;;;;20.27;45.54;102557.19;5017655;28;20442;-33
2023/05/20 07:03:52;;;;;;;1.00;0.70;;;;;;;20.27;45.37;102559.03;5018265;28;20056;-33
2023/05/20 07:06:19;;;;;;;2.38;1.10;;;;;;;20.27;45.11;102556.34;5026483;28;20049;-33
2023/05/20 07:08:45;;;;;;;1.20;1.08;;;;;;;20.27;45.09;102559.91;5023936;28;20049;-34
2023/05/20 07:11:12;;;;;;;3.20;0.90;;;;;;;20.27;45.58;102557.19;5024622;28;20448;-33
2023/05/20 07:13:38;;;;;;;1.73;1.00;;;;;;;20.26;45.49;102555.50;5019904;28;20385;-33
2023/05/20 07:16:05;;;;;;;1.33;0.80;;;;;;;20.26;45.35;102563.56;5023037;28;20049;-33
2023/05/20 07:18:32;;;;;;;1.23;0.82;;;;;;;20.26;45.34;102552.81;5020862;28;20050;-35
2023/05/20 07:20:58;;;;;;;1.10;1.00;;;;;;;20.26;45.59;102558.19;5021563;28;20500;-33
2023/05/20 07:23:25;;;;;;;1.92;1.02;;;;;;;20.27;45.74;102550.97;5025511;28;20045;-33
2023/05/20 07:25:52;;;;;;;1.25;0.80;;;;;;;20.26;45.41;102558.19;5021475;28;20496;-33
2023/05/20 07:28:19;;;;;;;2.88;1.15;;;;;;;20.27;45.07;102542.88;5018214;28;20049;-33
2023/05/20 07:30:49;;;;;;;2.25;1.00;;;;;;;20.27;45.68;102540.19;5029137;28;20037;-33
2023/05/20 07:33:16;;;;;;;1.25;0.93;;;;;;;20.26;45.46;102535.78;5025456;28;20425;-33
2023/05/20 07:35:43;;;;;;;2.60;0.90;;;;;;;20.27;45.65;102537.50;5022327;28;20049;-33
2023/05/20 07:38:11;;;;;;;1.92;0.85;;;;;;;20.27;45.23;102524.88;5026078;28;20053;-33
2023/05/20 07:40:39;;;;;;;1.15;0.98;;;;;;;20.28;45.23;102533.81;5022189;28;20038;-33
2023/05/20 07:43:07;;;;;;;1.15;1.05;;;;;;;20.28;45.08;102533.81;5027078;28;20050;-34
2023/05/20 07:45:35;;;;;;;1.27;0.98;;;;;;;20.29;45.36;102527.44;5026023;28;20131;-33
2023/05/20 07:48:04;;;;;;;0.85;0.80;;;;;;;20.30;45.49;102526.44;5021685;28;20381;-33
2023/05/20 07:50:30;;;;;;;1.17;0.90;;;;;;;20.31;45.30;102520.09;5023732;28;20049;-33
2023/05/20 07:52:57;;;;;;;1.05;0.95;;;;;;;20.32;45.08;102519.13;5027431;28;20049;-33
2023/05/20 07:55:24;;;;;;;1.02;0.90;;;;;;;20.32;45.54;102519.13;5028564;28;20046;-33
2023/05/20 07:57:51;;;;;;;1.27;1.00;;;;;;;20.33;45.60;102518.13;5026399;28;20050;-34
2023/05/20 08:00:18;;;;;;;1.42;0.90;;;;;;;20.34;45.06;102517.13;5019728;28;20120;-34
2023/05/20 08:02:45;;;;;;;1.40;1.13;;;;;;;20.34;45.48;102509.94;5023214;28;20085;-34
2023/05/20 08:05:12;;;;;;;1.55;0.90;;;;;;;20.36;45.37;102515.19;5025081;28;20053;-34
2023/05/20 08:07:38;;;;;;;3.22;1.00;;;;;;;20.36;45.58;102518.72;5025147;28;20349;-34
2023/05/20 08:10:05;;;;;;;1.23;0.90;;;;;;;20.35;45.28;102511.66;5029922;28;20053;-34
2023/05/20 08:12:32;;;;;;;1.40;1.00;;;;;;;20.36;45.53;102516.03;5024703;28;20057;-34
2023/05/20 08:14:59;;;;;;;1.98;1.45;;;;;;;20.38;45.05;102515.91;5020892;28;20514;-34
2023/05/20 08:17:25;;;;;;;1.38;1.10;;;;;;;20.38;44.96;102507.81;5019285;28;20100;-34
2023/05/20 08:19:52;;;;;;;1.98;1.15;;;;;;;20.39;45.48;102520.31;5019509;28;20129;-34
2023/05/20 08:22:18;;;;;;;1.10;0.95;;;;;;;20.40;44.84;102519.34;5024190;28;20429;-35
2023/05/20 08:24:45;;;;;;;2.58;1.10;;;;;;;20.41;45.49;102512.94;5027331;28;20286;-34
2023/05/20 08:27:12;;;;;;;1.67;1.00;;;;;;;20.41;44.97;102519.19;5020635;28;20046;-34
2023/05/20 08:29:38;;;;;;;1.70;1.10;;;;;;;20.42;44.92;102510.16;5022640;28;20203;-34
2023/05/20 08:32:05;;;;;;;1.83;1.00;;;;;;;20.42;45.00;102512.84;5018749;28;20446;-34
2023/05/20 08:34:32;;;;;;;1.30;0.93;;;;;;;20.43;44.99;102519.09;5022567;28;20050;-34
2023/05/20 08:36:58;;;;;;;1.40;0.85;;;;;;;20.44;44.58;102515.41;5021698;28;20117;-34
2023/05/20 08:39:26;;;;;;;1.52;0.90;;;;;;;20.45;45.22;102509.88;5023809;28;20088;-34
2023/05/20 08:41:52;;;;;;;1.00;0.88;;;;;;;20.45;44.96;102506.31;5018168;28;20445;-35
2023/05/20 08:44:21;;;;;;;1.98;1.33;;;;;;;20.46;45.13;102495.44;5020792;28;20053;-34
2023/05/20 08:46:48;;;;;;;1.10;0.82;;;;;;;20.47;44.74;102501.69;5023403;28;20049;-33
2023/05/20 08:49:15;;;;;;;2.40;1.10;;;;;;;20.48;45.20;102495.31;5022133;28;20060;-33
2023/05/20 08:51:42;;;;;;;2.45;1.10;;;;;;;20.49;44.86;102493.50;5019783;28;20730;-33
2023/05/20 08:54:10;;;;;;;2.40;1.10;;;;;;;20.49;44.57;102491.66;5022144;28;20064;-33
2023/05/20 08:56:38;;;;;;;1.35;1.10;;;;;;;20.50;44.95;102490.66;5019225;28;20049;-33
2023/05/20 08:59:05;;;;;;;1.42;0.90;;;;;;;20.52;44.97;102487.84;5020951;28;20057;-33
2023/05/20 09:01:38;;;;;;;1.65;1.00;;;;;;;20.53;44.95;102476.94;5021508;28;20045;-33
2023/05/20 09:04:05;;;;;;;1.35;0.95;;;;;;;20.54;45.21;102473.25;5017234;28;20081;-33
2023/05/20 09:06:44;;;;;;;1.25;0.93;;;;;;;20.54;45.04;102473.25;5018721;28;20046;-34
2023/05/20 09:09:14;;;;;;;2.35;0.90;;;;;;;20.57;45.15;102482.91;5019436;28;20501;-34
2023/05/20 09:11:41;;;;;;;1.63;1.10;;;;;;;20.59;45.33;102481.81;5025271;28;20144;-33
2023/05/20 09:14:08;;;;;;;1.05;0.80;;;;;;;20.60;45.32;102472.75;5025366;28;20077;-34
2023/05/20 09:16:34;;;;;;;1.35;1.00;;;;;;;20.61;44.97;102468.19;5017956;28;20140;-34
2023/05/20 09:19:04;;;;;;;3.17;1.00;;;;;;;20.63;44.94;102475.19;5018120;28;20073;-33
2023/05/20 09:21:31;;;;;;;1.08;0.88;;;;;;;20.65;44.95;102481.28;5021384;28;20065;-35
2023/05/20 09:24:01;;;;;;;2.42;0.85;;;;;;;20.68;45.17;102461.31;5023648;28;20049;-33
2023/05/20 09:26:31;;;;;;;1.50;1.02;;;;;;;20.72;45.08;102472.69;5022179;28;20046;-33
2023/05/20 09:28:59;;;;;;;1.13;0.98;;;;;;;20.75;45.12;102465.19;5023450;28;20175;-34
2023/05/20 09:31:37;;;;;;;1.38;0.85;;;;;;;20.79;45.41;102465.78;5021033;28;20083;-33
2023/05/20 09:34:05;;;;;;;1.35;1.08;;;;;;;20.84;44.69;102450.06;5024713;28;20484;-33
2023/05/20 09:36:33;;;;;;;1.48;1.00;;;;;;;20.87;44.74;102447.97;5023377;28;20164;-33
2023/05/20 09:39:02;;;;;;;1.02;0.93;;;;;;;20.93;45.24;102446.56;5025950;28;20104;-33
2023/05/20 09:41:37;;;;;;;1.92;1.02;;;;;;;20.98;44.90;102447.00;5025300;28;20115;-34
2023/05/20 09:44:05;;;;;;;1.92;0.90;;;;;;;21.03;44.81;102439.38;5024354;28;20057;-34
2023/05/20 09:46:33;;;;;;;1.20;0.98;;;;;;;21.08;45.38;102439.81;5021541;28;20165;-33
2023/05/20 09:49:00;;;;;;;2.80;0.77;;;;;;;21.12;44.68;102424.25;5027885;28;20056;-33
2023/05/20 09:51:28;;;;;;;1.55;0.90;;;;;;;21.16;45.10;102431.06;5020384;28;20057;-34
2023/05/20 09:53:56;;;;;;;0.60;0.60;;;;;;;21.20;44.71;102429.81;5025125;28;20050;-33
2023/05/20 09:56:24;;;;;;;1.42;1.00;;;;;;;21.25;44.67;102427.53;5023693;28;20050;-33
2023/05/20 09:58:57;;;;;;;1.10;0.70;;;;;;;21.30;44.86;102435.22;5022786;28;20053;-34
2023/05/20 10:01:24;;;;;;;2.17;0.88;;;;;;;21.34;44.55;102434.84;5020276;28;20377;-34
2023/05/20 10:03:52;;;;;;;1.60;1.20;;;;;;;21.38;44.67;102427.34;5025351;28;20053;-33
2023/05/20 10:06:44;;;;;;;1.02;0.77;;;;;;;21.42;44.85;102436.84;5021570;28;20045;-34
2023/05/20 10:09:36;;;;;;;1.10;0.80;;;;;;;21.46;44.37;102432.03;5025551;28;20107;-34
2023/05/20 10:12:36;;;;;;;1.63;0.95;;;;;;;21.49;44.72;102424.53;5024893;28;20044;-33
2023/05/20 10:15:12;;;;;;;1.83;0.80;;;;;;;21.53;44.44;102425.97;5020720;28;20073;-33
2023/05/20 10:18:14;;;;;;;0.88;0.80;;;;;;;21.52;44.44;102416.16;5019505;28;20095;-34
2023/05/20 10:20:47;;;;;;;1.13;0.80;;;;;;;21.58;44.37;102412.06;5026950;28;20465;-33
2023/05/20 10:23:26;;;;;;;1.38;0.90;;;;;;;21.59;44.05;102416.47;5023052;28;20346;-34
2023/05/20 10:25:55;;;;;;;1.50;0.88;;;;;;;21.60;44.42;102415.47;5024961;28;20053;-34
2023/05/20 10:28:31;;;;;;;1.15;0.77;;;;;;;21.60;44.02;102412.78;5027529;28;20338;-33
2023/05/20 10:30:59;;;;;;;0.73;0.68;;;;;;;21.61;44.10;102409.94;5022903;28;20059;-34
2023/05/20 10:33:27;;;;;;;2.22;0.95;;;;;;;21.63;44.37;102410.66;5021132;28;20438;-34
2023/05/20 10:35:58;;;;;;;1.05;0.95;;;;;;;21.65;43.98;102397.88;5023451;28;20119;-33
2023/05/20 10:38:25;;;;;;;1.30;0.70;;;;;;;21.65;44.29;102389.78;5023635;28;20124;-33
2023/05/20 10:40:52;;;;;;;1.73;0.90;;;;;;;21.67;44.10;102395.03;5019403;28;20041;-34
2023/05/20 10:43:27;;;;;;;1.73;1.10;;;;;;;21.68;44.27;102391.34;5028092;28;20053;-34
2023/05/20 10:45:56;;;;;;;0.98;0.80;;;;;;;21.71;43.92;102385.69;5023049;28;20140;-33
2023/05/20 10:48:30;;;;;;;1.80;0.77;;;;;;;21.72;44.16;102391.91;5024260;28;20054;-34
2023/05/20 10:51:05;;;;;;;1.45;0.88;;;;;;;21.73;43.96;102386.38;5023686;28;20160;-34
2023/05/20 10:53:39;;;;;;;0.60;0.60;;;;;;;21.74;44.16;102374.56;5028986;28;20054;-34
2023/05/20 10:56:16;;;;;;;1.13;0.82;;;;;;;21.77;43.75;102366.19;5029457;28;20149;-34
2023/05/20 10:58:43;;;;;;;1.05;0.85;;;;;;;21.80;43.54;102371.31;5023671;28;20061;-34
2023/05/20 11:01:10;;;;;;;1.17;1.00;;;;;;;21.82;43.98;102365.78;5023191;28;20069;-34
2023/05/20 11:03:39;;;;;;;2.05;1.15;;;;;;;21.84;43.78;102366.50;5024620;28;20085;-34
2023/05/20 11:06:13;;;;;;;1.23;0.90;;;;;;;21.86;43.69;102383.38;5023878;28;20501;-34
2023/05/20 11:08:44;;;;;;;0.95;0.85;;;;;;;21.89;43.59;102366.91;5022236;28;20132;-34
2023/05/20 11:11:11;;;;;;;3.75;0.80;;;;;;;21.90;43.53;102374.88;5024369;28;20080;-33
2023/05/20 11:13:38;;;;;;;1.88;1.20;;;;;;;21.91;43.62;102364.94;5023286;28;20053;-33
2023/05/20 11:16:05;;;;;;;1.15;0.90;;;;;;;21.92;43.59;102362.09;5021804;28;20072;-34
2023/05/20 11:18:32;;;;;;;1.45;0.98;;;;;;;21.93;43.35;102357.53;5021693;28;20053;-33
2023/05/20 11:21:00;;;;;;;2.33;1.00;;;;;;;21.92;43.44;102351.28;5020397;28;20311;-33
2023/05/20 11:23:28;;;;;;;1.90;1.10;;;;;;;21.92;43.47;102355.84;5028408;28;20073;-34
2023/05/20 11:25:55;;;;;;;3.47;1.00;;;;;;;21.95;43.33;102352.88;5023125;28;20049;-33
2023/05/20 11:28:23;;;;;;;2.45;0.95;;;;;;;21.96;43.61;102354.56;5021479;28;20049;-34